Aviation Digital Data Service (ADDS)

Output produced by TAFs form (1654 UTC 06 May 2016)
found at http://www.aviationweather.gov/adds/tafs/
 
KRIC 061123Z 0612/0712 VRB05KT 4SM -RA BR SCT007 BKN012 OVC025 
     TEMPO 0612/0615 BKN007 
     FM061800 32007KT P6SM OVC015 
     FM070400 31005KT 4SM BR OVC007